Time;durP1;ratioP1;P1;durP2;ratioP2;P2;SDS_P1;SDS_P2;PMS_P1;PMS_P2;Temp;Humidity;BMP_temperature;BMP_pressure;BME280_temperature;BME280_humidity;BME280_pressure;Samples;Min_cycle;Max_cycle;Signal;HPM_P1;HPM_P2
2021/10/14 00:02:13;;;;;;;;;;;17.80;60.00;;;;;;5044998;28;19923;-53
2021/10/14 00:04:38;;;;;;;;;;;17.80;60.00;;;;;;5046047;28;20267;-53
2021/10/14 00:07:04;;;;;;;;;;;17.80;60.00;;;;;;5043899;28;19920;-54
2021/10/14 00:09:29;;;;;;;;;;;17.80;60.00;;;;;;5046428;28;19917;-50
2021/10/14 00:11:55;;;;;;;;;;;17.80;60.00;;;;;;5046338;28;19912;-60
2021/10/14 00:14:20;;;;;;;;;;;17.80;60.00;;;;;;5046452;28;19985;-53
2021/10/14 00:16:45;;;;;;;;;;;17.80;60.00;;;;;;5045885;28;19913;-60
2021/10/14 00:19:11;;;;;;;;;;;17.80;60.00;;;;;;5046045;28;19916;-55
2021/10/14 00:21:36;;;;;;;;;;;17.80;60.00;;;;;;5045958;28;19924;-54
2021/10/14 00:24:02;;;;;;;;;;;17.80;60.00;;;;;;5046233;28;19977;-57
2021/10/14 00:26:27;;;;;;;;;;;17.80;60.00;;;;;;5045794;28;19923;-54
2021/10/14 00:28:53;;;;;;;;;;;17.80;60.00;;;;;;5042732;28;19917;-52
2021/10/14 00:31:18;;;;;;;;;;;17.80;60.10;;;;;;5045647;28;19913;-55
2021/10/14 00:33:44;;;;;;;;;;;17.80;60.00;;;;;;5045927;28;19913;-52
2021/10/14 00:36:09;;;;;;;;;;;17.80;60.00;;;;;;5037586;28;19970;-52
2021/10/14 00:38:34;;;;;;;;;;;17.80;60.00;;;;;;5059155;28;19913;-54
2021/10/14 00:41:00;;;;;;;;;;;17.80;60.00;;;;;;5045363;28;19988;-58
2021/10/14 00:43:25;;;;;;;;;;;17.80;60.00;;;;;;5044204;28;20059;-51
2021/10/14 00:45:51;;;;;;;;;;;17.80;60.10;;;;;;5046103;28;19924;-53
2021/10/14 00:48:16;;;;;;;;;;;17.80;60.00;;;;;;5045675;28;19921;-61
2021/10/14 00:50:42;;;;;;;;;;;17.80;60.10;;;;;;5045765;28;19921;-53
2021/10/14 00:53:07;;;;;;;;;;;17.80;60.10;;;;;;5045910;28;19913;-51
2021/10/14 00:55:33;;;;;;;;;;;17.80;60.10;;;;;;5046516;28;19912;-54
2021/10/14 00:57:58;;;;;;;;;;;17.80;60.00;;;;;;5044643;28;19913;-51
2021/10/14 01:00:24;;;;;;;;;;;17.80;60.00;;;;;;5044852;28;19913;-50
2021/10/14 01:02:49;;;;;;;;;;;17.80;60.00;;;;;;5045448;28;19919;-53
2021/10/14 01:05:15;;;;;;;;;;;17.80;60.00;;;;;;5045135;28;20401;-61
2021/10/14 01:07:40;;;;;;;;;;;17.80;60.10;;;;;;5044553;28;19920;-51
2021/10/14 01:10:06;;;;;;;;;;;17.80;60.70;;;;;;5045630;28;20000;-54
2021/10/14 01:12:31;;;;;;;;;;;17.80;60.10;;;;;;5044816;28;19924;-53
2021/10/14 01:14:57;;;;;;;;;;;17.80;60.10;;;;;;5043747;28;19952;-51
2021/10/14 01:17:22;;;;;;;;;;;17.80;60.20;;;;;;5045866;28;19920;-56
2021/10/14 01:19:48;;;;;;;;;;;17.80;60.20;;;;;;5044001;28;20347;-51
2021/10/14 01:22:13;;;;;;;;;;;17.80;60.10;;;;;;5045412;28;19920;-59
2021/10/14 01:24:39;;;;;;;;;;;17.80;60.20;;;;;;5045698;28;19917;-52
2021/10/14 01:27:05;;;;;;;;;;;17.80;60.10;;;;;;5045345;28;19920;-54
2021/10/14 01:29:31;;;;;;;;;;;17.80;60.10;;;;;;5045564;28;20322;-53
2021/10/14 01:31:56;;;;;;;;;;;17.80;60.10;;;;;;5045182;28;19913;-55
2021/10/14 01:34:21;;;;;;;;;;;17.80;60.10;;;;;;5049566;28;19913;-51
2021/10/14 01:36:47;;;;;;;;;;;17.80;60.10;;;;;;5049363;28;19916;-60
2021/10/14 01:39:12;;;;;;;;;;;17.80;60.20;;;;;;5049298;28;20519;-55
2021/10/14 01:41:42;;;;;;;;;;;17.80;60.20;;;;;;5049240;28;19920;-61
2021/10/14 01:44:07;;;;;;;;;;;17.80;60.20;;;;;;5048020;28;19962;-60
2021/10/14 01:46:33;;;;;;;;;;;17.80;60.20;;;;;;5049186;28;19913;-52
2021/10/14 01:48:58;;;;;;;;;;;17.80;60.20;;;;;;5048931;28;19916;-55
2021/10/14 01:51:24;;;;;;;;;;;17.80;60.20;;;;;;5049214;28;20332;-60
2021/10/14 01:53:49;;;;;;;;;;;17.80;60.20;;;;;;5047686;28;19927;-51
2021/10/14 01:56:14;;;;;;;;;;;17.80;60.20;;;;;;5048726;28;19913;-54
2021/10/14 01:58:40;;;;;;;;;;;17.80;60.30;;;;;;5048811;28;19917;-61
2021/10/14 02:01:05;;;;;;;;;;;17.80;60.30;;;;;;5048955;28;20613;-53
2021/10/14 02:03:31;;;;;;;;;;;17.80;60.30;;;;;;5047601;28;19924;-55
2021/10/14 02:05:56;;;;;;;;;;;17.80;60.30;;;;;;5049193;28;19913;-52
2021/10/14 02:08:22;;;;;;;;;;;17.80;60.40;;;;;;5049124;28;19917;-50
2021/10/14 02:10:47;;;;;;;;;;;17.80;60.40;;;;;;5047596;28;20286;-53
2021/10/14 02:13:13;;;;;;;;;;;17.80;60.30;;;;;;5048936;28;19962;-62
2021/10/14 02:15:38;;;;;;;;;;;17.80;60.30;;;;;;5048687;28;19928;-50
2021/10/14 02:18:03;;;;;;;;;;;17.80;60.40;;;;;;5047808;28;20348;-53
2021/10/14 02:20:29;;;;;;;;;;;17.80;60.30;;;;;;5048271;28;19931;-59
2021/10/14 02:22:54;;;;;;;;;;;17.80;60.30;;;;;;5047634;28;19920;-52
2021/10/14 02:25:20;;;;;;;;;;;17.80;60.30;;;;;;5048207;28;19913;-54
2021/10/14 02:27:45;;;;;;;;;;;17.80;60.20;;;;;;5047499;28;20313;-57
2021/10/14 02:30:11;;;;;;;;;;;17.80;60.20;;;;;;5048225;28;19921;-52
2021/10/14 02:32:37;;;;;;;;;;;17.80;60.20;;;;;;5046741;28;19916;-50
2021/10/14 02:35:03;;;;;;;;;;;17.80;60.20;;;;;;5047844;28;19917;-53
2021/10/14 02:37:28;;;;;;;;;;;17.80;60.20;;;;;;5047183;28;20353;-56
2021/10/14 02:39:54;;;;;;;;;;;17.80;60.20;;;;;;5047815;28;19920;-55
2021/10/14 02:42:19;;;;;;;;;;;17.80;60.20;;;;;;5029311;28;19913;-53
2021/10/14 02:44:44;;;;;;;;;;;17.80;60.20;;;;;;5046224;28;19913;-58
2021/10/14 02:47:10;;;;;;;;;;;17.80;60.30;;;;;;5045986;28;20406;-53
2021/10/14 02:49:35;;;;;;;;;;;17.80;60.20;;;;;;5047626;28;19917;-50
2021/10/14 02:52:01;;;;;;;;;;;17.80;60.30;;;;;;5047453;28;19970;-58
2021/10/14 02:54:26;;;;;;;;;;;17.80;60.30;;;;;;5045972;28;20000;-53
2021/10/14 02:56:52;;;;;;;;;;;17.80;60.30;;;;;;5047284;28;19917;-58
2021/10/14 02:59:17;;;;;;;;;;;17.80;60.30;;;;;;5047181;28;19913;-57
2021/10/14 03:01:43;;;;;;;;;;;17.80;60.30;;;;;;5046402;28;19948;-53
2021/10/14 03:04:08;;;;;;;;;;;17.80;60.30;;;;;;5046196;28;20341;-55
2021/10/14 03:06:34;;;;;;;;;;;17.80;60.30;;;;;;5044918;28;19919;-50
2021/10/14 03:08:59;;;;;;;;;;;17.80;60.30;;;;;;5046320;28;19923;-50
2021/10/14 03:11:24;;;;;;;;;;;17.80;60.30;;;;;;5047041;28;19913;-55
2021/10/14 03:13:50;;;;;;;;;;;17.70;60.20;;;;;;5046322;28;20290;-50
2021/10/14 03:16:16;;;;;;;;;;;17.80;60.30;;;;;;5046449;28;20000;-56
2021/10/14 03:18:42;;;;;;;;;;;17.80;60.30;;;;;;5047183;28;19924;-50
2021/10/14 03:21:07;;;;;;;;;;;17.80;60.20;;;;;;5046714;28;19913;-53
2021/10/14 03:23:33;;;;;;;;;;;17.80;60.20;;;;;;5045541;28;19939;-61
2021/10/14 03:25:58;;;;;;;;;;;17.80;60.30;;;;;;5045902;28;19912;-53
2021/10/14 03:28:24;;;;;;;;;;;17.80;60.30;;;;;;5046498;28;20296;-51
2021/10/14 03:30:49;;;;;;;;;;;17.80;60.30;;;;;;5046161;28;19913;-58
2021/10/14 03:33:15;;;;;;;;;;;17.80;60.20;;;;;;5046023;28;19931;-54
2021/10/14 03:35:40;;;;;;;;;;;17.80;60.20;;;;;;5046143;28;19928;-52
2021/10/14 03:38:05;;;;;;;;;;;17.80;60.30;;;;;;5045827;28;19913;-59
2021/10/14 03:40:31;;;;;;;;;;;17.80;60.30;;;;;;5045652;28;19917;-58
2021/10/14 03:42:56;;;;;;;;;;;17.80;60.30;;;;;;5046874;28;19920;-53
2021/10/14 03:45:22;;;;;;;;;;;17.80;60.30;;;;;;5045508;28;20560;-61
2021/10/14 03:47:47;;;;;;;;;;;17.80;60.40;;;;;;5045580;28;20287;-55
2021/10/14 03:50:13;;;;;;;;;;;17.70;60.40;;;;;;5045260;28;19942;-54
2021/10/14 03:52:38;;;;;;;;;;;17.80;60.60;;;;;;5040344;28;20367;-59
2021/10/14 03:55:04;;;;;;;;;;;17.70;60.40;;;;;;5042664;28;19912;-57
2021/10/14 03:57:29;;;;;;;;;;;17.80;60.50;;;;;;5045283;28;19920;-52
2021/10/14 03:59:55;;;;;;;;;;;17.80;60.50;;;;;;5044806;28;19913;-59
2021/10/14 04:02:20;;;;;;;;;;;17.80;60.60;;;;;;5044259;28;20344;-53
2021/10/14 04:04:45;;;;;;;;;;;17.80;60.50;;;;;;5045241;28;19939;-59
2021/10/14 04:07:11;;;;;;;;;;;17.80;60.50;;;;;;5045336;28;19916;-54
2021/10/14 04:09:36;;;;;;;;;;;17.70;60.40;;;;;;5045290;28;19913;-53
2021/10/14 04:12:02;;;;;;;;;;;17.80;60.50;;;;;;5045463;28;20397;-59
2021/10/14 04:14:29;;;;;;;;;;;17.80;60.40;;;;;;5045642;28;19927;-59
2021/10/14 04:16:54;;;;;;;;;;;17.80;60.40;;;;;;5045186;28;20302;-58
2021/10/14 04:19:20;;;;;;;;;;;17.80;60.40;;;;;;5043839;28;19919;-58
2021/10/14 04:21:46;;;;;;;;;;;17.80;60.40;;;;;;5045402;28;19913;-52
2021/10/14 04:24:11;;;;;;;;;;;17.80;60.40;;;;;;5044116;28;19917;-50
2021/10/14 04:26:37;;;;;;;;;;;17.80;60.40;;;;;;5044949;28;19913;-52
2021/10/14 04:29:02;;;;;;;;;;;17.80;60.40;;;;;;5045444;28;19917;-57
2021/10/14 04:31:28;;;;;;;;;;;17.80;60.40;;;;;;5044939;28;19935;-52
2021/10/14 04:33:53;;;;;;;;;;;17.80;60.40;;;;;;5046774;28;19967;-51
2021/10/14 04:36:20;;;;;;;;;;;17.80;60.30;;;;;;5043964;28;19913;-57
2021/10/14 04:38:46;;;;;;;;;;;17.80;60.40;;;;;;5045157;28;19913;-54
2021/10/14 04:41:11;;;;;;;;;;;17.80;60.30;;;;;;5044424;28;19921;-53
2021/10/14 04:43:37;;;;;;;;;;;17.80;60.30;;;;;;5045062;28;19974;-58
2021/10/14 04:46:02;;;;;;;;;;;17.80;60.40;;;;;;5044674;28;19913;-51
2021/10/14 04:48:28;;;;;;;;;;;17.80;60.40;;;;;;5043254;28;20413;-59
2021/10/14 04:50:53;;;;;;;;;;;17.80;60.40;;;;;;5045895;28;19978;-54
2021/10/14 04:53:19;;;;;;;;;;;17.80;60.50;;;;;;5045005;28;20333;-59
2021/10/14 04:55:44;;;;;;;;;;;17.80;60.40;;;;;;5044740;28;19913;-55
2021/10/14 04:58:10;;;;;;;;;;;17.80;60.40;;;;;;5044603;28;19916;-58
2021/10/14 05:00:35;;;;;;;;;;;17.80;60.40;;;;;;5044535;28;19930;-56
2021/10/14 05:03:01;;;;;;;;;;;17.70;60.40;;;;;;5044801;28;19962;-51
2021/10/14 05:05:26;;;;;;;;;;;17.80;60.50;;;;;;5045045;28;20282;-56
2021/10/14 05:07:52;;;;;;;;;;;17.80;60.50;;;;;;5044551;28;19917;-54
2021/10/14 05:10:17;;;;;;;;;;;17.70;60.60;;;;;;5048986;28;19921;-57
2021/10/14 05:12:42;;;;;;;;;;;17.80;60.80;;;;;;5048715;28;19913;-59
2021/10/14 05:15:08;;;;;;;;;;;17.80;60.80;;;;;;5047966;28;19928;-56
2021/10/14 05:17:34;;;;;;;;;;;17.80;60.90;;;;;;5048147;28;20000;-58
2021/10/14 05:19:59;;;;;;;;;;;17.80;61.00;;;;;;5046955;28;19913;-53
2021/10/14 05:22:25;;;;;;;;;;;17.80;61.20;;;;;;5048962;28;19913;-60
2021/10/14 05:24:50;;;;;;;;;;;17.80;61.30;;;;;;5048387;28;20147;-52
2021/10/14 05:27:16;;;;;;;;;;;17.80;61.20;;;;;;5048123;28;19913;-51
2021/10/14 05:29:41;;;;;;;;;;;17.90;61.10;;;;;;5048514;28;20093;-57
2021/10/14 05:32:06;;;;;;;;;;;17.90;61.00;;;;;;5048466;28;19913;-52
2021/10/14 05:34:32;;;;;;;;;;;17.90;60.80;;;;;;5048961;28;20293;-59
2021/10/14 05:36:57;;;;;;;;;;;17.90;60.80;;;;;;5048695;28;19931;-58
2021/10/14 05:39:23;;;;;;;;;;;17.90;60.70;;;;;;5047855;28;19920;-52
2021/10/14 05:41:48;;;;;;;;;;;17.90;60.50;;;;;;5048549;28;19943;-61
2021/10/14 05:44:14;;;;;;;;;;;17.90;60.20;;;;;;5048487;28;19912;-56
2021/10/14 05:46:39;;;;;;;;;;;17.90;60.20;;;;;;5047840;28;19986;-50
2021/10/14 05:49:05;;;;;;;;;;;17.90;60.40;;;;;;5048149;28;20606;-55
2021/10/14 05:51:30;;;;;;;;;;;17.90;60.30;;;;;;5048344;28;19916;-59
2021/10/14 05:53:55;;;;;;;;;;;17.90;60.20;;;;;;5048465;28;19932;-51
2021/10/14 05:56:23;;;;;;;;;;;17.90;60.20;;;;;;5047953;28;19913;-55
2021/10/14 05:58:48;;;;;;;;;;;17.90;60.10;;;;;;5048312;28;19924;-51
2021/10/14 06:01:14;;;;;;;;;;;17.90;60.00;;;;;;5048396;28;20377;-54
2021/10/14 06:03:39;;;;;;;;;;;17.90;59.90;;;;;;5047672;28;19921;-58
2021/10/14 06:06:04;;;;;;;;;;;17.90;59.90;;;;;;5045862;28;20613;-58
2021/10/14 06:08:30;;;;;;;;;;;17.90;60.20;;;;;;5044042;28;19917;-53
2021/10/14 06:10:56;;;;;;;;;;;17.80;60.60;;;;;;5046274;28;19917;-53
2021/10/14 06:13:21;;;;;;;;;;;17.80;60.60;;;;;;5046140;28;19920;-60
2021/10/14 06:15:46;;;;;;;;;;;17.90;60.40;;;;;;5053401;23;19929;-55
2021/10/14 06:18:12;;;;;;;;;;;17.90;60.20;;;;;;5028231;28;20273;-52
2021/10/14 06:20:37;;;;;;;;;;;17.90;60.00;;;;;;5047280;28;19913;-59
2021/10/14 06:23:04;;;;;;;;;;;17.90;59.70;;;;;;5039096;28;19913;-50
2021/10/14 06:25:29;;;;;;;;;;;17.90;59.60;;;;;;5022086;28;20103;-51
2021/10/14 06:27:55;;;;;;;;;;;17.90;59.40;;;;;;5023144;28;19980;-55
2021/10/14 06:30:20;;;;;;;;;;;17.90;59.40;;;;;;5036010;28;19917;-60
2021/10/14 06:32:47;;;;;;;;;;;17.90;59.30;;;;;;5038704;28;20438;-50
2021/10/14 06:35:12;;;;;;;;;;;17.90;59.20;;;;;;5033913;28;19913;-56
2021/10/14 06:37:37;;;;;;;;;;;17.90;59.20;;;;;;5033819;28;19914;-60
2021/10/14 06:40:03;;;;;;;;;;;17.90;59.20;;;;;;5038137;28;19920;-56
2021/10/14 06:42:29;;;;;;;;;;;17.80;59.10;;;;;;5034219;28;20278;-56
2021/10/14 06:44:54;;;;;;;;;;;17.80;59.10;;;;;;5035675;28;19917;-56
2021/10/14 06:47:19;;;;;;;;;;;17.90;59.20;;;;;;5034224;28;19913;-52
2021/10/14 06:49:48;;;;;;;;;;;17.80;59.20;;;;;;5034062;28;19917;-54
2021/10/14 06:52:14;;;;;;;;;;;17.80;59.20;;;;;;5043134;28;19913;-58
2021/10/14 06:54:41;;;;;;;;;;;17.80;59.30;;;;;;5015722;28;19924;-59
2021/10/14 06:57:07;;;;;;;;;;;17.80;59.50;;;;;;5031910;28;19921;-55
2021/10/14 06:59:32;;;;;;;;;;;17.80;59.60;;;;;;5015161;28;19921;-54
2021/10/14 07:01:58;;;;;;;;;;;17.80;59.60;;;;;;5036821;28;20413;-57
2021/10/14 07:04:23;;;;;;;;;;;17.80;59.60;;;;;;5033534;28;19913;-59
2021/10/14 07:06:49;;;;;;;;;;;17.80;59.60;;;;;;5031630;28;19921;-57
2021/10/14 07:09:14;;;;;;;;;;;17.80;59.80;;;;;;5037159;28;19917;-59
2021/10/14 07:11:44;;;;;;;;;;;17.80;59.80;;;;;;5033822;28;19921;-58
2021/10/14 07:14:09;;;;;;;;;;;17.70;59.80;;;;;;5034245;28;19964;-55
2021/10/14 07:16:35;;;;;;;;;;;17.80;59.90;;;;;;5015642;28;20490;-55
2021/10/14 07:19:01;;;;;;;;;;;17.70;59.80;;;;;;5030907;28;19914;-58
2021/10/14 07:21:28;;;;;;;;;;;17.70;60.00;;;;;;5039253;28;20370;-58
2021/10/14 07:23:53;;;;;;;;;;;17.70;60.00;;;;;;5038599;28;19940;-54
2021/10/14 07:26:18;;;;;;;;;;;17.70;60.00;;;;;;5030053;28;19943;-54
2021/10/14 07:28:44;;;;;;;;;;;17.80;60.10;;;;;;5033390;28;19924;-60
2021/10/14 07:31:09;;;;;;;;;;;17.70;60.00;;;;;;5036572;28;19917;-54
2021/10/14 07:33:35;;;;;;;;;;;17.70;60.10;;;;;;5035171;28;19913;-59
2021/10/14 07:36:00;;;;;;;;;;;17.70;60.10;;;;;;5038579;28;19952;-58
2021/10/14 07:38:26;;;;;;;;;;;17.70;60.20;;;;;;5037863;28;19917;-53
2021/10/14 07:40:51;;;;;;;;;;;17.70;60.30;;;;;;5031622;28;19920;-56
2021/10/14 07:43:17;;;;;;;;;;;17.70;60.40;;;;;;5036597;28;20398;-60
2021/10/14 07:45:43;;;;;;;;;;;17.70;60.40;;;;;;5035802;28;19921;-54
2021/10/14 07:48:09;;;;;;;;;;;17.70;60.40;;;;;;5031269;28;19917;-56
2021/10/14 07:50:34;;;;;;;;;;;17.70;60.50;;;;;;5024262;28;19967;-56
2021/10/14 07:53:00;;;;;;;;;;;17.70;60.50;;;;;;5013332;28;20401;-61
2021/10/14 07:55:25;;;;;;;;;;;17.70;60.60;;;;;;5041091;28;19916;-56
2021/10/14 07:57:51;;;;;;;;;;;17.70;60.60;;;;;;5033347;28;19917;-55
2021/10/14 08:00:16;;;;;;;;;;;17.70;60.60;;;;;;5038163;28;19919;-56
2021/10/14 08:02:42;;;;;;;;;;;17.70;60.60;;;;;;5031443;28;19914;-60
2021/10/14 08:05:07;;;;;;;;;;;17.70;60.70;;;;;;5036045;28;19913;-60
2021/10/14 08:07:33;;;;;;;;;;;17.60;60.70;;;;;;5035759;28;20516;-56
2021/10/14 08:10:00;;;;;;;;;;;17.70;60.80;;;;;;5034530;28;19912;-59
2021/10/14 08:12:25;;;;;;;;;;;17.60;60.80;;;;;;5033843;28;19936;-59
2021/10/14 08:14:51;;;;;;;;;;;17.60;60.80;;;;;;5016026;28;19921;-55
2021/10/14 08:17:16;;;;;;;;;;;17.60;60.80;;;;;;5032937;28;19913;-57
2021/10/14 08:19:41;;;;;;;;;;;17.60;60.80;;;;;;5033472;28;20000;-56
2021/10/14 08:22:07;;;;;;;;;;;17.60;60.90;;;;;;5015896;28;19917;-55
2021/10/14 08:24:35;;;;;;;;;;;17.60;60.90;;;;;;5020016;28;19992;-56
2021/10/14 08:27:01;;;;;;;;;;;17.60;60.90;;;;;;5036874;28;19917;-56
2021/10/14 08:29:27;;;;;;;;;;;17.60;61.00;;;;;;5015578;28;19939;-58
2021/10/14 08:31:52;;;;;;;;;;;17.60;60.90;;;;;;5016067;28;19928;-59
2021/10/14 08:34:18;;;;;;;;;;;17.60;60.90;;;;;;5036991;28;20378;-58
2021/10/14 08:36:43;;;;;;;;;;;17.60;61.00;;;;;;5028509;28;19913;-57
2021/10/14 08:39:09;;;;;;;;;;;17.60;61.00;;;;;;5033587;28;19917;-59
2021/10/14 08:41:34;;;;;;;;;;;17.60;61.00;;;;;;5036854;28;19924;-58
2021/10/14 08:44:01;;;;;;;;;;;17.60;61.00;;;;;;5034212;28;19944;-63
2021/10/14 08:46:26;;;;;;;;;;;17.60;61.10;;;;;;5016279;28;19917;-59
2021/10/14 08:48:52;;;;;;;;;;;17.50;61.00;;;;;;5033252;28;19979;-58
2021/10/14 08:51:17;;;;;;;;;;;17.60;61.00;;;;;;5006432;28;19913;-59
2021/10/14 08:53:44;;;;;;;;;;;17.50;61.00;;;;;;5014938;28;20305;-58
2021/10/14 08:56:11;;;;;;;;;;;17.50;61.00;;;;;;5036627;28;19917;-54
2021/10/14 08:58:38;;;;;;;;;;;17.60;61.00;;;;;;5036588;28;21233;-57
2021/10/14 09:01:05;;;;;;;;;;;17.60;61.00;;;;;;5028908;28;20366;-59
2021/10/14 09:03:30;;;;;;;;;;;17.60;61.00;;;;;;5032949;28;19916;-64
2021/10/14 09:05:56;;;;;;;;;;;17.50;61.10;;;;;;5028696;28;19913;-57
2021/10/14 09:08:34;;;;;;;;;;;17.50;61.00;;;;;;5015164;28;20016;-56
2021/10/14 09:11:03;;;;;;;;;;;17.50;61.20;;;;;;5023357;28;19975;-58
2021/10/14 09:13:28;;;;;;;;;;;17.50;61.80;;;;;;5020263;28;19913;-55
2021/10/14 09:15:54;;;;;;;;;;;17.50;61.20;;;;;;5028163;28;19921;-54
2021/10/14 09:18:24;;;;;;;;;;;17.50;61.30;;;;;;5002033;28;19963;-57
2021/10/14 09:20:49;;;;;;;;;;;17.50;61.30;;;;;;5033788;28;19966;-55
2021/10/14 09:23:24;;;;;;;;;;;17.50;61.30;;;;;;5039077;28;19916;-57
2021/10/14 09:25:50;;;;;;;;;;;17.50;61.40;;;;;;5019025;28;19980;-58
2021/10/14 09:28:15;;;;;;;;;;;17.50;61.40;;;;;;5016969;28;19924;-56
2021/10/14 09:31:01;;;;;;;;;;;17.50;61.40;;;;;;5030279;28;19916;-57
2021/10/14 09:33:31;;;;;;;;;;;17.50;61.40;;;;;;5035684;28;19940;-57
2021/10/14 09:35:56;;;;;;;;;;;17.50;61.40;;;;;;5032212;28;19913;-56
2021/10/14 09:38:32;;;;;;;;;;;17.50;61.50;;;;;;5035553;28;19927;-53
2021/10/14 09:41:01;;;;;;;;;;;17.50;61.50;;;;;;5035461;28;19917;-57
2021/10/14 09:43:26;;;;;;;;;;;17.50;61.50;;;;;;5012253;28;19913;-55
2021/10/14 09:45:52;;;;;;;;;;;17.50;61.50;;;;;;5032013;28;19940;-60
2021/10/14 09:48:18;;;;;;;;;;;17.50;61.50;;;;;;5027590;28;19921;-54
2021/10/14 09:50:44;;;;;;;;;;;17.50;61.50;;;;;;5036386;28;20289;-56
2021/10/14 09:53:22;;;;;;;;;;;17.50;61.50;;;;;;5038091;28;20291;-58
2021/10/14 09:55:51;;;;;;;;;;;17.40;61.50;;;;;;5004385;28;21056;-56
2021/10/14 09:58:17;;;;;;;;;;;17.50;61.60;;;;;;5038731;28;19912;-59
2021/10/14 10:00:42;;;;;;;;;;;17.40;61.50;;;;;;5038414;28;20366;-55
2021/10/14 10:03:08;;;;;;;;;;;17.50;61.60;;;;;;5044136;28;19913;-56
2021/10/14 10:05:35;;;;;;;;;;;17.40;61.50;;;;;;5019801;28;20382;-55
2021/10/14 10:08:01;;;;;;;;;;;17.50;61.60;;;;;;5011704;28;20448;-56
2021/10/14 10:10:27;;;;;;;;;;;17.40;61.60;;;;;;5029658;28;19921;-56
2021/10/14 10:12:52;;;;;;;;;;;17.40;61.60;;;;;;5027773;28;19912;-53
2021/10/14 10:15:37;;;;;;;;;;;17.40;61.60;;;;;;5016922;28;19921;-56
2021/10/14 10:18:02;;;;;;;;;;;17.40;61.60;;;;;;5010258;28;19913;-53
2021/10/14 10:20:37;;;;;;;;;;;17.40;61.60;;;;;;5036406;28;19939;-59
2021/10/14 10:23:03;;;;;;;;;;;17.40;61.60;;;;;;5035333;28;19913;-57
2021/10/14 10:25:31;;;;;;;;;;;17.50;61.70;;;;;;5018537;28;20008;-58
2021/10/14 10:28:01;;;;;;;;;;;17.40;61.60;;;;;;5034893;28;19944;-56
2021/10/14 10:30:29;;;;;;;;;;;17.40;61.60;;;;;;5030966;28;19913;-59
2021/10/14 10:32:54;;;;;;;;;;;17.40;61.60;;;;;;5035364;28;19936;-57
2021/10/14 10:35:38;;;;;;;;;;;17.40;61.60;;;;;;5021813;28;20378;-59
2021/10/14 10:38:23;;;;;;;;;;;17.40;61.60;;;;;;5032090;28;19952;-58
2021/10/14 10:40:49;;;;;;;;;;;17.40;61.60;;;;;;5036136;28;19919;-55
2021/10/14 10:43:21;;;;;;;;;;;17.40;61.70;;;;;;5030941;28;19944;-56
2021/10/14 10:45:57;;;;;;;;;;;17.40;61.70;;;;;;5020233;28;20429;-59
2021/10/14 10:48:24;;;;;;;;;;;17.40;61.70;;;;;;5016289;28;19917;-55
2021/10/14 10:50:50;;;;;;;;;;;17.40;61.80;;;;;;5019762;28;19939;-57
2021/10/14 10:53:17;;;;;;;;;;;17.40;61.80;;;;;;5019958;28;19919;-55
2021/10/14 10:55:46;;;;;;;;;;;17.40;61.80;;;;;;5026723;28;20514;-57
2021/10/14 10:58:12;;;;;;;;;;;17.40;61.80;;;;;;5033968;28;19913;-57
2021/10/14 11:00:39;;;;;;;;;;;17.40;61.80;;;;;;5026236;28;19952;-57
2021/10/14 11:03:07;;;;;;;;;;;17.40;61.80;;;;;;5037608;28;19920;-56
2021/10/14 11:05:40;;;;;;;;;;;17.40;61.80;;;;;;5038352;28;19927;-56
2021/10/14 11:08:08;;;;;;;;;;;17.40;61.80;;;;;;5016287;28;19917;-56
2021/10/14 11:10:33;;;;;;;;;;;17.40;61.80;;;;;;5021108;28;19974;-58
2021/10/14 11:12:59;;;;;;;;;;;17.40;62.40;;;;;;5021118;28;19913;-56
2021/10/14 11:15:26;;;;;;;;;;;17.40;61.90;;;;;;5020423;28;20095;-58
2021/10/14 11:18:01;;;;;;;;;;;17.30;61.80;;;;;;5037739;28;23769;-55
2021/10/14 11:20:26;;;;;;;;;;;17.40;61.80;;;;;;5019559;28;19913;-58
2021/10/14 11:22:52;;;;;;;;;;;17.40;61.90;;;;;;5019658;28;20275;-58
2021/10/14 11:25:17;;;;;;;;;;;17.30;61.80;;;;;;5036836;28;19967;-58
2021/10/14 11:27:45;;;;;;;;;;;17.40;61.90;;;;;;5040622;28;19963;-58
2021/10/14 11:30:17;;;;;;;;;;;17.30;61.80;;;;;;5035292;28;19917;-57
2021/10/14 11:32:49;;;;;;;;;;;17.30;61.80;;;;;;5029925;28;19920;-54
2021/10/14 11:35:15;;;;;;;;;;;17.30;61.90;;;;;;5016549;28;19913;-55
2021/10/14 11:37:40;;;;;;;;;;;17.40;61.90;;;;;;5035637;28;19928;-56
2021/10/14 11:40:06;;;;;;;;;;;17.30;61.80;;;;;;5022871;28;19913;-58
2021/10/14 11:42:32;;;;;;;;;;;17.30;61.90;;;;;;5034007;28;20019;-65
2021/10/14 11:44:58;;;;;;;;;;;17.30;61.90;;;;;;5035253;28;20439;-57
2021/10/14 11:47:23;;;;;;;;;;;17.30;61.90;;;;;;5032525;28;19913;-59
2021/10/14 11:50:09;;;;;;;;;;;17.30;61.80;;;;;;5036251;28;19920;-57
2021/10/14 11:52:34;;;;;;;;;;;17.30;62.00;;;;;;5011499;28;19976;-60
2021/10/14 11:55:03;;;;;;;;;;;17.30;61.90;;;;;;5015929;28;19967;-55
2021/10/14 11:57:29;;;;;;;;;;;17.40;62.00;;;;;;5036254;28;21633;-58
2021/10/14 11:59:55;;;;;;;;;;;17.30;61.80;;;;;;5036399;28;19916;-54
2021/10/14 12:02:21;;;;;;;;;;;17.30;61.90;;;;;;5021363;28;19939;-57
2021/10/14 12:04:50;;;;;;;;;;;17.30;61.90;;;;;;5015519;28;19917;-58
2021/10/14 12:07:36;;;;;;;;;;;17.30;62.00;;;;;;5035939;28;19924;-54
2021/10/14 12:10:01;;;;;;;;;;;17.30;62.00;;;;;;5032431;28;19927;-59
2021/10/14 12:12:27;;;;;;;;;;;17.30;62.00;;;;;;5033121;28;19913;-58
2021/10/14 12:15:22;;;;;;;;;;;17.30;61.90;;;;;;5016479;28;19929;-57
2021/10/14 12:17:47;;;;;;;;;;;17.30;62.00;;;;;;5014207;28;19971;-58
2021/10/14 12:20:16;;;;;;;;;;;17.30;62.10;;;;;;5034730;28;20293;-58
2021/10/14 12:22:42;;;;;;;;;;;17.30;62.00;;;;;;5031160;28;19913;-58
2021/10/14 12:25:08;;;;;;;;;;;17.30;62.00;;;;;;5040756;28;19916;-59
2021/10/14 12:28:06;;;;;;;;;;;17.30;62.00;;;;;;5035149;28;19913;-56
2021/10/14 12:30:32;;;;;;;;;;;17.30;62.70;;;;;;4972257;28;19917;-53
2021/10/14 12:32:58;;;;;;;;;;;17.30;62.10;;;;;;5037253;28;20000;-57
2021/10/14 12:35:24;;;;;;;;;;;17.30;62.00;;;;;;5033312;28;20414;-58
2021/10/14 12:38:01;;;;;;;;;;;17.30;62.10;;;;;;5014530;28;19919;-58
2021/10/14 12:40:28;;;;;;;;;;;17.30;62.10;;;;;;5035787;28;20365;-57
2021/10/14 12:45:52;;;;;;;;;;;17.30;62.10;;;;;;5029627;28;19917;-57
2021/10/14 12:53:39;;;;;;;;;;;17.20;62.10;;;;;;5018277;28;19913;-59
2021/10/14 12:56:04;;;;;;;;;;;17.20;62.10;;;;;;5017973;28;19940;-57
2021/10/14 12:58:30;;;;;;;;;;;17.30;62.20;;;;;;5034230;28;19967;-60
2021/10/14 13:01:05;;;;;;;;;;;17.30;62.20;;;;;;5015060;28;19920;-56
2021/10/14 13:03:30;;;;;;;;;;;17.30;62.20;;;;;;5033134;28;19913;-59
2021/10/14 13:05:56;;;;;;;;;;;17.20;62.20;;;;;;5016631;28;19912;-56
2021/10/14 13:08:22;;;;;;;;;;;17.30;62.20;;;;;;5030535;28;19921;-53
2021/10/14 13:10:48;;;;;;;;;;;17.30;62.20;;;;;;5028929;28;19944;-55
2021/10/14 13:13:13;;;;;;;;;;;17.30;62.20;;;;;;5034075;28;20302;-59
2021/10/14 13:15:39;;;;;;;;;;;17.20;62.20;;;;;;5035669;28;19921;-54
2021/10/14 13:18:04;;;;;;;;;;;17.20;62.20;;;;;;5023712;28;19935;-58
2021/10/14 13:20:31;;;;;;;;;;;17.20;62.20;;;;;;5034279;28;19920;-54
2021/10/14 13:22:57;;;;;;;;;;;17.20;62.20;;;;;;5036335;28;19913;-56
2021/10/14 13:25:22;;;;;;;;;;;17.20;62.20;;;;;;5017356;28;19971;-54
2021/10/14 13:27:47;;;;;;;;;;;17.20;62.30;;;;;;5026945;28;19967;-60
2021/10/14 13:30:13;;;;;;;;;;;17.20;62.30;;;;;;5038983;28;19916;-58
2021/10/14 13:32:38;;;;;;;;;;;17.20;62.30;;;;;;5034322;28;20329;-56
2021/10/14 13:35:06;;;;;;;;;;;17.20;62.30;;;;;;5021693;28;19920;-57
2021/10/14 13:37:31;;;;;;;;;;;17.20;62.30;;;;;;5035097;28;20564;-58
2021/10/14 13:39:58;;;;;;;;;;;17.20;62.30;;;;;;5039349;28;19913;-54
2021/10/14 13:42:29;;;;;;;;;;;17.20;62.40;;;;;;5039081;28;19913;-58
2021/10/14 13:44:55;;;;;;;;;;;17.20;62.30;;;;;;5043485;28;19913;-56
2021/10/14 13:47:21;;;;;;;;;;;17.20;62.30;;;;;;5041100;28;19967;-56
2021/10/14 13:49:47;;;;;;;;;;;17.20;62.20;;;;;;5036556;28;19913;-56
2021/10/14 13:52:13;;;;;;;;;;;17.20;62.20;;;;;;5019412;28;20021;-55
2021/10/14 13:54:38;;;;;;;;;;;17.20;62.20;;;;;;5032862;28;20020;-56
2021/10/14 13:57:04;;;;;;;;;;;17.20;62.30;;;;;;5042568;28;20472;-58
2021/10/14 13:59:29;;;;;;;;;;;17.20;62.30;;;;;;5031934;28;19913;-56
2021/10/14 14:01:55;;;;;;;;;;;17.20;62.20;;;;;;5031264;28;19920;-53
2021/10/14 14:04:20;;;;;;;;;;;17.20;62.20;;;;;;5029521;28;20430;-58
2021/10/14 14:06:46;;;;;;;;;;;17.20;62.20;;;;;;5041226;28;19913;-58
2021/10/14 14:09:11;;;;;;;;;;;17.20;62.20;;;;;;5018114;28;19917;-55
2021/10/14 14:11:37;;;;;;;;;;;17.20;62.20;;;;;;5037515;28;19913;-59
2021/10/14 14:14:02;;;;;;;;;;;17.20;62.30;;;;;;5021088;28;19913;-57
2021/10/14 14:16:28;;;;;;;;;;;17.20;62.40;;;;;;5035860;28;20275;-56
2021/10/14 14:18:53;;;;;;;;;;;17.20;62.40;;;;;;5035603;28;20422;-55
2021/10/14 14:21:19;;;;;;;;;;;17.20;62.30;;;;;;5018271;28;19974;-57